Time;durP1;ratioP1;P1;durP2;ratioP2;P2;SDS_P1;SDS_P2;PMS_P1;PMS_P2;Temp;Humidity;BMP_temperature;BMP_pressure;BME280_temperature;BME280_humidity;BME280_pressure;Samples;Min_cycle;Max_cycle;Signal;HPM_P1;HPM_P2
2022/01/12 00:01:37;;;;;;;11.32;3.90;;;7.30;40.70;;;;;;4975370;28;20018;-70
2022/01/12 00:04:03;;;;;;;9.63;4.63;;;7.30;40.50;;;;;;4975219;28;20074;-70
2022/01/12 00:06:28;;;;;;;11.70;4.85;;;7.30;40.30;;;;;;4974998;28;20464;-70
2022/01/12 00:08:55;;;;;;;8.40;4.45;;;7.20;39.80;;;;;;4974955;28;20503;-69
2022/01/12 00:11:22;;;;;;;11.73;4.60;;;7.20;40.00;;;;;;4974361;28;20034;-71
2022/01/12 00:13:51;;;;;;;9.38;4.38;;;7.20;40.10;;;;;;4975155;28;20042;-71
2022/01/12 00:16:17;;;;;;;11.68;4.13;;;7.10;39.60;;;;;;4975049;28;20026;-71
2022/01/12 00:18:45;;;;;;;10.32;4.68;;;7.10;40.10;;;;;;4974888;28;20019;-72
2022/01/12 00:21:12;;;;;;;12.20;4.95;;;7.10;41.00;;;;;;4974785;28;20097;-70
2022/01/12 00:23:39;;;;;;;11.70;4.65;;;7.00;40.20;;;;;;4974753;28;20468;-71
2022/01/12 00:26:09;;;;;;;12.73;4.30;;;7.00;41.20;;;;;;4974805;28;20109;-70
2022/01/12 00:34:10;;;;;;;12.45;4.88;;;6.80;41.10;;;;;;4975060;28;20037;-73
2022/01/12 00:36:36;;;;;;;14.30;5.35;;;6.80;41.10;;;;;;4974870;28;20047;-73
2022/01/12 00:39:05;;;;;;;11.88;4.95;;;6.70;41.30;;;;;;4974483;28;20025;-72
2022/01/12 00:41:31;;;;;;;12.43;4.45;;;6.70;41.20;;;;;;4974515;28;20034;-72
2022/01/12 00:44:00;;;;;;;14.32;6.03;;;6.70;41.70;;;;;;4974583;28;20030;-71
2022/01/12 00:46:29;;;;;;;10.98;4.53;;;6.60;41.70;;;;;;4974564;28;20030;-71
2022/01/12 00:48:56;;;;;;;11.52;4.68;;;6.60;41.70;;;;;;4974084;28;20055;-71
2022/01/12 00:51:27;;;;;;;12.35;4.88;;;6.60;41.80;;;;;;4989232;28;20370;-70
2022/01/12 00:53:54;;;;;;;12.02;4.85;;;6.60;42.20;;;;;;4974348;28;20027;-71
2022/01/12 00:56:21;;;;;;;12.65;4.95;;;6.70;42.40;;;;;;4974405;28;20031;-70
2022/01/12 00:58:47;;;;;;;9.73;5.15;;;6.60;42.40;;;;;;4972780;28;20733;-71
2022/01/12 01:01:13;;;;;;;8.63;4.30;;;6.70;42.20;;;;;;4974278;28;20030;-72
2022/01/12 01:03:39;;;;;;;11.15;4.90;;;6.70;42.70;;;;;;4974273;28;20117;-70
2022/01/12 01:06:10;;;;;;;9.43;4.72;;;6.70;42.50;;;;;;4974131;28;20105;-69
2022/01/12 01:08:36;;;;;;;12.73;5.43;;;6.70;42.80;;;;;;4973918;28;20472;-70
2022/01/12 01:11:02;;;;;;;15.45;5.70;;;6.70;42.60;;;;;;4974103;28;20188;-68
2022/01/12 01:13:34;;;;;;;9.77;4.60;;;6.70;42.80;;;;;;4973955;28;20054;-71
2022/01/12 01:26:57;;;;;;;11.68;4.55;;;6.70;43.10;;;;;;4974135;28;20038;-70
2022/01/12 01:29:23;;;;;;;16.27;4.93;;;6.70;42.50;;;;;;4973849;28;20027;-71
2022/01/12 01:31:49;;;;;;;11.10;4.65;;;6.70;42.40;;;;;;4973910;28;20026;-72
2022/01/12 01:34:16;;;;;;;15.20;5.03;;;6.70;42.30;;;;;;4974034;28;20096;-71
2022/01/12 01:36:50;;;;;;;11.13;4.80;;;6.70;42.30;;;;;;4973949;28;20023;-70
2022/01/12 01:39:17;;;;;;;;;;;6.70;42.50;;;;;;4973018;28;20476;-69
2022/01/12 01:41:48;;;;;;;10.63;4.78;;;6.70;42.60;;;;;;4973930;28;19906;-72
2022/01/12 01:55:07;;;;;;;11.65;3.88;;;6.70;42.40;;;;;;4974135;28;20057;-71
2022/01/12 01:57:34;;;;;;;10.77;4.60;;;6.80;42.90;;;;;;4974004;28;20057;-71
2022/01/12 02:00:05;;;;;;;11.52;4.90;;;6.80;43.40;;;;;;4973826;28;20023;-72
2022/01/12 02:02:31;;;;;;;12.20;4.40;;;6.80;42.70;;;;;;4973847;28;20034;-71
2022/01/12 02:04:56;;;;;;;10.00;4.88;;;6.80;43.20;;;;;;4973877;28;20030;-71
2022/01/12 02:07:23;;;;;;;12.82;5.25;;;6.90;42.90;;;;;;4973772;28;20421;-71
2022/01/12 02:09:48;;;;;;;10.07;4.45;;;6.90;42.90;;;;;;4973723;28;20377;-70
2022/01/12 02:12:14;;;;;;;10.73;4.88;;;6.90;43.20;;;;;;4972578;28;20019;-69
2022/01/12 02:14:40;;;;;;;14.13;4.55;;;6.90;43.10;;;;;;4972377;28;20027;-71
2022/01/12 02:17:20;;;;;;;10.75;4.93;;;6.90;43.30;;;;;;4973523;28;20093;-70
2022/01/12 02:20:12;;;;;;;13.70;5.10;;;7.00;43.30;;;;;;4973335;28;20102;-71
2022/01/12 02:36:29;;;;;;;10.07;4.50;;;7.00;44.40;;;;;;4977071;28;20061;-67
2022/01/12 02:41:41;;;;;;;13.45;4.97;;;7.00;44.70;;;;;;4977116;28;20046;-67
2022/01/12 02:54:52;;;;;;;11.00;4.53;;;7.10;45.60;;;;;;4976616;28;20031;-68
2022/01/12 02:57:19;;;;;;;10.40;4.30;;;7.20;46.20;;;;;;4976595;28;20504;-67
2022/01/12 03:00:09;;;;;;;11.52;4.75;;;7.20;47.50;;;;;;4976380;28;20027;-67
2022/01/12 03:02:38;;;;;;;9.38;4.07;;;7.20;48.30;;;;;;4976269;28;20039;-68
2022/01/12 03:05:34;;;;;;;13.10;4.37;;;7.10;49.50;;;;;;4990703;28;20464;-67
2022/01/12 03:07:55;;;;;;;12.30;4.35;;;7.10;50.50;;;;;;4976015;28;20079;-68
2022/01/12 03:10:21;;;;;;;12.20;4.95;;;7.10;51.60;;;;;;4976351;28;20034;-67
2022/01/12 03:12:47;;;;;;;9.90;4.07;;;7.10;51.80;;;;;;4976441;28;20097;-68
2022/01/12 03:15:12;;;;;;;7.25;3.78;;;7.10;52.10;;;;;;4976235;28;20437;-67
2022/01/12 03:17:38;;;;;;;10.90;3.92;;;7.00;53.50;;;;;;4976014;28;20053;-69
2022/01/12 03:20:06;;;;;;;7.32;3.40;;;6.90;55.60;;;;;;4975961;28;20031;-68
2022/01/12 03:22:32;;;;;;;7.57;3.60;;;6.80;57.10;;;;;;4975825;28;20477;-68
2022/01/12 03:24:58;;;;;;;8.95;3.38;;;6.70;58.30;;;;;;4975975;28;20038;-68
2022/01/12 03:27:26;;;;;;;10.15;3.65;;;6.50;60.80;;;;;;4975972;28;20039;-68
2022/01/12 03:29:55;;;;;;;9.07;3.80;;;6.40;61.50;;;;;;4975822;28;20027;-69
2022/01/12 03:32:29;;;;;;;7.28;3.95;;;6.20;62.20;;;;;;4975768;28;20113;-69
2022/01/12 03:35:06;;;;;;;8.52;4.00;;;6.20;62.40;;;;;;4975861;28;20022;-68
2022/01/12 03:37:53;;;;;;;9.50;3.72;;;6.00;65.40;;;;;;4975843;28;20035;-68
2022/01/12 03:40:19;;;;;;;7.82;3.97;;;5.90;65.90;;;;;;4975694;28;20035;-67
2022/01/12 03:42:44;;;;;;;7.95;3.60;;;5.80;67.00;;;;;;4975573;28;20034;-68
2022/01/12 03:45:10;;;;;;;7.50;3.50;;;5.70;69.30;;;;;;4975253;28;20050;-67
2022/01/12 03:47:36;;;;;;;9.55;3.35;;;5.60;69.80;;;;;;4975350;28;20069;-67
2022/01/12 03:50:03;;;;;;;10.90;4.68;;;5.40;73.20;;;;;;4975169;28;20081;-69
2022/01/12 03:52:29;;;;;;;7.70;3.55;;;5.30;73.70;;;;;;4975213;28;20031;-67
2022/01/12 03:54:55;;;;;;;10.25;4.03;;;5.30;76.30;;;;;;4975250;28;20037;-68
2022/01/12 03:57:20;;;;;;;8.77;3.78;;;5.30;77.90;;;;;;4975224;28;20027;-69
2022/01/12 03:59:46;;;;;;;7.05;3.50;;;5.30;80.50;;;;;;4975049;28;20033;-68
2022/01/12 04:02:12;;;;;;;6.97;3.63;;;5.30;78.40;;;;;;4975202;28;20110;-68
2022/01/12 04:04:53;;;;;;;7.32;3.40;;;5.30;80.30;;;;;;4990031;28;20380;-67
2022/01/12 04:10:03;;;;;;;;;;;5.40;80.70;;;;;;4975502;28;20046;-68
2022/01/12 04:12:29;;;;;;;7.15;3.20;;;5.40;88.60;;;;;;4974953;28;19906;-67
2022/01/12 04:14:55;;;;;;;6.70;2.95;;;5.40;83.90;;;;;;4974843;28;20027;-67
2022/01/12 04:17:20;;;;;;;5.97;2.95;;;5.50;83.90;;;;;;4974868;28;20495;-68
2022/01/12 04:19:46;;;;;;;7.10;3.15;;;5.50;83.20;;;;;;4974813;28;20376;-68
2022/01/12 04:23:16;;;;;;;6.25;3.03;;;5.50;82.60;;;;;;4973507;28;20484;-68
2022/01/12 04:25:04;;;;;;;7.68;3.45;;;5.60;81.80;;;;;;4974573;28;20038;-66
2022/01/12 04:27:30;;;;;;;7.30;3.08;;;5.70;82.60;;;;;;4974674;28;20026;-68
2022/01/12 04:29:56;;;;;;;7.00;2.95;;;5.70;82.40;;;;;;4974549;28;20496;-67
2022/01/12 04:32:23;;;;;;;6.32;2.90;;;5.80;82.50;;;;;;4974626;28;20027;-67
2022/01/12 04:34:49;;;;;;;6.35;2.95;;;5.80;81.80;;;;;;4973425;28;20559;-67
2022/01/12 04:37:15;;;;;;;6.25;2.70;;;5.80;81.70;;;;;;4974631;28;20031;-68
2022/01/12 04:39:40;;;;;;;6.40;2.92;;;5.90;82.40;;;;;;4974553;28;20111;-66
2022/01/12 04:42:07;;;;;;;6.70;3.20;;;5.90;80.60;;;;;;4974532;28;20023;-68
2022/01/12 04:44:34;;;;;;;6.90;3.03;;;5.90;81.40;;;;;;4974385;28;20078;-69
2022/01/12 04:47:07;;;;;;;6.82;3.13;;;6.00;81.50;;;;;;4974400;28;20019;-68
2022/01/12 04:52:04;;;;;;;6.55;3.08;;;6.00;80.00;;;;;;4974478;28;20054;-68
2022/01/12 04:54:30;;;;;;;7.90;3.38;;;6.00;80.50;;;;;;4974400;28;20023;-68
2022/01/12 04:56:56;;;;;;;6.75;3.20;;;6.00;80.30;;;;;;4973479;28;20094;-67
2022/01/12 04:59:22;;;;;;;5.95;2.90;;;6.00;80.60;;;;;;4974238;28;20111;-68
2022/01/12 05:01:52;;;;;;;7.38;3.10;;;6.00;80.90;;;;;;4974298;28;20022;-67
2022/01/12 05:07:26;;;;;;;8.03;3.00;;;6.00;80.20;;;;;;4974311;28;20077;-67
2022/01/12 05:12:47;;;;;;;7.28;3.20;;;6.00;79.70;;;;;;4973992;28;20030;-69
2022/01/12 05:12:54;;;;;;;5.93;2.65;;;6.00;79.80;;;;;;4973913;28;20468;-68
2022/01/12 05:15:34;;;;;;;8.23;3.17;;;6.10;79.30;;;;;;4974019;28;20019;-69
2022/01/12 05:18:00;;;;;;;6.18;3.20;;;6.10;79.60;;;;;;4973994;28;20377;-67
2022/01/12 05:20:26;;;;;;;7.90;3.50;;;6.10;78.80;;;;;;4974152;28;20114;-67
2022/01/12 05:22:51;;;;;;;5.78;2.88;;;6.20;79.00;;;;;;4974194;28;20114;-67
2022/01/12 05:25:18;;;;;;;8.35;3.20;;;6.20;78.60;;;;;;4973961;28;20019;-68
2022/01/12 05:27:45;;;;;;;7.03;2.80;;;6.30;78.10;;;;;;4972673;28;20034;-67
2022/01/12 05:30:12;;;;;;;8.23;3.15;;;6.40;77.50;;;;;;4973843;28;20031;-68
2022/01/12 05:32:38;;;;;;;6.72;3.00;;;6.40;76.60;;;;;;4973856;28;20228;-68
2022/01/12 05:35:06;;;;;;;9.43;3.67;;;6.40;76.70;;;;;;4973687;28;20034;-68
2022/01/12 05:37:32;;;;;;;8.75;2.97;;;6.50;76.00;;;;;;4973681;28;20365;-68
2022/01/12 05:40:00;;;;;;;7.03;3.30;;;6.50;76.00;;;;;;4973770;28;20034;-68
2022/01/12 05:42:27;;;;;;;7.05;2.95;;;6.60;75.50;;;;;;4973725;28;20030;-70
2022/01/12 05:44:52;;;;;;;7.28;3.05;;;6.60;75.10;;;;;;4972367;28;20035;-68
2022/01/12 05:47:35;;;;;;;8.43;3.50;;;6.60;75.00;;;;;;4973934;28;20037;-68
2022/01/12 05:50:00;;;;;;;9.38;3.60;;;6.70;74.80;;;;;;4973421;28;20050;-69
2022/01/12 05:52:26;;;;;;;7.40;3.40;;;6.80;74.40;;;;;;4973713;28;20035;-68
2022/01/12 05:54:52;;;;;;;7.07;3.22;;;6.80;74.30;;;;;;4973944;28;20033;-68
2022/01/12 05:57:17;;;;;;;6.00;3.00;;;6.80;74.10;;;;;;4973859;28;20041;-69
2022/01/12 05:59:43;;;;;;;6.97;3.33;;;6.80;73.70;;;;;;4973785;28;20034;-68
2022/01/12 06:02:09;;;;;;;6.30;3.33;;;6.80;73.50;;;;;;4973610;28;20043;-68
2022/01/12 06:04:34;;;;;;;11.75;5.28;;;6.80;73.50;;;;;;4973828;28;20038;-68
2022/01/12 06:07:02;;;;;;;8.30;3.42;;;6.80;73.00;;;;;;4974086;28;20049;-70
2022/01/12 06:09:27;;;;;;;6.65;3.38;;;6.80;73.20;;;;;;4977484;28;20023;-68
2022/01/12 06:11:53;;;;;;;7.40;3.13;;;6.80;73.10;;;;;;4992281;28;20097;-68
2022/01/12 06:14:20;;;;;;;7.40;3.50;;;6.80;72.30;;;;;;4975979;28;20435;-69
2022/01/12 06:16:46;;;;;;;6.50;3.08;;;6.80;72.60;;;;;;4977276;28;20034;-67
2022/01/12 06:19:12;;;;;;;7.57;3.33;;;6.70;72.40;;;;;;4977417;28;20034;-71
2022/01/12 06:21:38;;;;;;;6.47;3.08;;;6.70;71.80;;;;;;4977069;28;20034;-69
2022/01/12 06:24:05;;;;;;;5.50;2.88;;;6.80;72.20;;;;;;4975692;28;20041;-68
2022/01/12 06:26:31;;;;;;;7.47;2.97;;;6.80;71.80;;;;;;4976982;28;20022;-69
2022/01/12 06:31:38;;;;;;;7.55;3.30;;;6.90;70.50;;;;;;4977034;28;20453;-70
2022/01/12 06:34:04;;;;;;;8.23;3.35;;;6.90;70.20;;;;;;4976760;28;20038;-67
2022/01/12 06:36:30;;;;;;;6.18;3.22;;;7.00;68.90;;;;;;4976920;28;20027;-67
2022/01/12 06:38:55;;;;;;;7.35;3.20;;;7.10;68.80;;;;;;4977182;28;20509;-70
2022/01/12 06:41:21;;;;;;;6.95;3.08;;;7.10;68.30;;;;;;4975484;28;20037;-69
2022/01/12 06:43:47;;;;;;;7.03;2.88;;;7.10;67.80;;;;;;4977667;28;20030;-68
2022/01/12 06:46:15;;;;;;;5.35;2.75;;;7.20;67.40;;;;;;4996428;28;20072;-69
2022/01/12 06:48:41;;;;;;;6.93;2.78;;;7.20;66.50;;;;;;4995912;28;20487;-68
2022/01/12 06:51:07;;;;;;;6.32;2.65;;;7.30;65.50;;;;;;4996250;28;20500;-68
2022/01/12 06:53:33;;;;;;;6.00;2.60;;;7.30;64.70;;;;;;4996207;28;20022;-70
2022/01/12 06:55:59;;;;;;;6.82;2.97;;;7.40;64.50;;;;;;4996070;28;20117;-68
2022/01/12 06:58:25;;;;;;;6.32;2.30;;;7.40;64.10;;;;;;4996047;28;20034;-68
2022/01/12 07:00:50;;;;;;;5.10;2.30;;;7.40;63.40;;;;;;4983748;28;20402;-68
2022/01/12 07:03:17;;;;;;;5.47;2.60;;;7.50;63.20;;;;;;4976344;28;20035;-69
2022/01/12 07:05:42;;;;;;;5.78;2.10;;;7.50;63.30;;;;;;4977011;28;20472;-68
2022/01/12 07:08:08;;;;;;;5.03;1.95;;;7.50;62.40;;;;;;4975201;28;20038;-68
2022/01/12 07:10:34;;;;;;;4.38;2.00;;;7.50;62.70;;;;;;4991675;28;20045;-70
2022/01/12 07:13:00;;;;;;;5.82;2.83;;;7.50;62.20;;;;;;4976935;28;20023;-66
2022/01/12 07:15:25;;;;;;;5.35;2.30;;;7.50;62.30;;;;;;4976575;28;20097;-67
2022/01/12 07:17:51;;;;;;;7.10;2.60;;;7.50;62.30;;;;;;4980214;28;20019;-68
2022/01/12 07:20:24;;;;;;;5.03;2.08;;;7.50;62.20;;;;;;4975816;28;20050;-71
2022/01/12 07:22:50;;;;;;;6.20;2.92;;;7.50;61.20;;;;;;4991381;28;20105;-64
2022/01/12 07:25:16;;;;;;;3.60;1.85;;;7.60;61.80;;;;;;4994397;28;20118;-65
2022/01/12 07:27:42;;;;;;;5.53;2.95;;;7.60;60.90;;;;;;4995463;28;20023;-66
2022/01/12 07:30:08;;;;;;;4.57;2.00;;;7.60;61.50;;;;;;4994382;28;20041;-67
2022/01/12 07:32:34;;;;;;;5.20;2.10;;;7.60;61.40;;;;;;5010449;28;20060;-66
2022/01/12 07:35:00;;;;;;;14.68;2.40;;;7.60;61.30;;;;;;4991633;28;20110;-65
2022/01/12 07:37:25;;;;;;;10.10;2.20;;;7.70;61.20;;;;;;4993384;28;20094;-67
2022/01/12 07:39:51;;;;;;;9.13;2.30;;;7.70;60.70;;;;;;4994947;28;20105;-66
2022/01/12 07:42:18;;;;;;;5.25;2.10;;;7.80;61.50;;;;;;4995378;28;20022;-66
2022/01/12 07:44:44;;;;;;;5.13;2.25;;;7.90;60.80;;;;;;4995205;28;20475;-67
2022/01/12 07:47:10;;;;;;;5.45;2.33;;;8.00;60.80;;;;;;4994981;28;20034;-66
2022/01/12 07:49:36;;;;;;;5.97;2.25;;;8.10;60.30;;;;;;4993389;28;20050;-66
2022/01/12 07:52:06;;;;;;;4.10;1.98;;;8.20;59.80;;;;;;4995050;28;20093;-66
2022/01/12 07:54:31;;;;;;;8.43;2.33;;;8.40;59.00;;;;;;4994812;28;20084;-68
2022/01/12 07:56:57;;;;;;;6.10;2.00;;;8.40;58.30;;;;;;4994727;28;20034;-66
2022/01/12 07:59:24;;;;;;;6.88;1.92;;;8.50;57.60;;;;;;4994579;28;20487;-67
2022/01/12 08:01:49;;;;;;;5.03;2.10;;;8.50;57.70;;;;;;4994870;28;20034;-68
2022/01/12 08:04:15;;;;;;;4.55;2.10;;;8.60;57.20;;;;;;4994755;28;20034;-66
2022/01/12 08:06:41;;;;;;;8.68;4.82;;;8.60;57.00;;;;;;4994649;28;20041;-70
2022/01/12 08:09:07;;;;;;;12.32;6.55;;;8.70;56.50;;;;;;4994675;28;20085;-68
2022/01/12 08:11:33;;;;;;;4.82;1.92;;;8.70;56.70;;;;;;4994397;28;20034;-67
2022/01/12 08:13:59;;;;;;;5.03;1.98;;;8.80;56.90;;;;;;4994688;28;20034;-69
2022/01/12 08:16:25;;;;;;;7.97;2.03;;;9.00;56.90;;;;;;4990487;28;20081;-71
2022/01/12 08:18:50;;;;;;;5.25;2.00;;;9.00;56.60;;;;;;4975586;28;20051;-67
2022/01/12 08:21:17;;;;;;;6.15;2.03;;;9.10;56.50;;;;;;4974775;28;20027;-68
2022/01/12 08:23:43;;;;;;;4.93;1.80;;;9.10;55.80;;;;;;4974759;28;20034;-68
2022/01/12 08:26:10;;;;;;;12.68;2.20;;;9.20;55.50;;;;;;4974543;28;20387;-68
2022/01/12 08:28:36;;;;;;;8.82;2.20;;;9.20;55.90;;;;;;4974569;28;20538;-70
2022/01/12 08:31:02;;;;;;;7.32;2.00;;;9.20;54.90;;;;;;4973765;28;20058;-68
2022/01/12 08:33:28;;;;;;;5.38;1.98;;;9.20;54.70;;;;;;4974501;28;20109;-66
2022/01/12 08:35:54;;;;;;;7.43;2.00;;;9.30;55.10;;;;;;4974512;28;20399;-70
2022/01/12 08:38:20;;;;;;;3.58;1.63;;;9.30;54.90;;;;;;4974181;28;20129;-69
2022/01/12 08:40:45;;;;;;;4.88;1.42;;;9.30;54.40;;;;;;4974442;28;20392;-69
2022/01/12 08:43:13;;;;;;;6.53;1.80;;;9.40;54.20;;;;;;4973137;28;20027;-69
2022/01/12 08:45:39;;;;;;;3.22;1.73;;;9.40;53.90;;;;;;4974642;28;20034;-70
2022/01/12 08:48:05;;;;;;;4.18;1.73;;;9.40;54.10;;;;;;4974059;28;20077;-70
2022/01/12 08:50:30;;;;;;;4.13;1.90;;;9.50;54.20;;;;;;4974457;28;20492;-72
2022/01/12 08:52:56;;;;;;;3.83;1.60;;;9.60;54.00;;;;;;4974204;28;20030;-71
2022/01/12 08:55:24;;;;;;;5.20;1.88;;;9.70;53.60;;;;;;4974163;28;20469;-68
2022/01/12 08:57:51;;;;;;;7.05;1.40;;;9.70;53.80;;;;;;4973907;28;20027;-67
2022/01/12 09:00:18;;;;;;;6.57;1.80;;;9.80;53.40;;;;;;4972653;28;20414;-69
2022/01/12 09:02:44;;;;;;;6.15;2.33;;;9.90;53.10;;;;;;4974107;28;20460;-67
2022/01/12 09:05:14;;;;;;;6.22;1.30;;;10.00;52.40;;;;;;4973956;28;20034;-68
2022/01/12 09:07:41;;;;;;;5.45;1.52;;;10.00;51.80;;;;;;4973785;28;20031;-69
2022/01/12 09:10:07;;;;;;;8.75;2.00;;;10.00;51.50;;;;;;4972769;28;20373;-69
2022/01/12 09:12:32;;;;;;;7.53;2.58;;;10.10;52.10;;;;;;4973741;28;20522;-68
2022/01/12 09:15:00;;;;;;;5.15;2.15;;;10.10;51.70;;;;;;4973722;28;20037;-67
2022/01/12 09:17:26;;;;;;;6.88;2.20;;;10.10;51.60;;;;;;4973850;28;20030;-67
2022/01/12 09:19:52;;;;;;;5.18;2.03;;;10.20;51.10;;;;;;4973719;28;20031;-69
2022/01/12 09:22:21;;;;;;;8.10;2.13;;;10.30;51.50;;;;;;4973667;28;20054;-70
2022/01/12 09:24:49;;;;;;;4.45;1.90;;;10.30;50.70;;;;;;4973722;28;20046;-68
2022/01/12 09:27:16;;;;;;;4.40;1.77;;;10.30;50.80;;;;;;4973489;28;20023;-68
2022/01/12 09:29:44;;;;;;;6.38;1.85;;;10.30;50.90;;;;;;4973585;28;20122;-67
2022/01/12 09:32:10;;;;;;;4.25;1.85;;;10.40;51.30;;;;;;4973607;28;20023;-68
2022/01/12 09:34:36;;;;;;;5.10;1.95;;;10.40;50.50;;;;;;4973704;28;20058;-69
2022/01/12 09:37:03;;;;;;;6.05;2.22;;;10.40;50.40;;;;;;4973777;28;20030;-68
2022/01/12 09:39:29;;;;;;;5.70;2.25;;;10.50;50.20;;;;;;4973526;28;20046;-68
2022/01/12 09:41:56;;;;;;;4.60;2.10;;;10.60;50.70;;;;;;4974037;28;20046;-67
2022/01/12 09:44:29;;;;;;;5.03;2.20;;;10.70;50.20;;;;;;4977434;28;20029;-66
2022/01/12 09:46:55;;;;;;;3.13;1.67;;;10.80;50.00;;;;;;4977571;28;20027;-68
2022/01/12 09:49:20;;;;;;;7.32;3.00;;;10.90;49.70;;;;;;4977111;28;20105;-68
2022/01/12 09:51:51;;;;;;;7.00;2.28;;;10.90;49.60;;;;;;4977454;28;20495;-68
2022/01/12 09:54:20;;;;;;;6.97;2.10;;;11.00;49.60;;;;;;4992623;28;20027;-67
2022/01/12 09:56:45;;;;;;;5.68;2.33;;;11.00;49.90;;;;;;4977385;28;20046;-67
2022/01/12 09:59:11;;;;;;;3.63;2.22;;;11.10;49.50;;;;;;4975960;28;20053;-67
2022/01/12 10:01:39;;;;;;;3.78;2.10;;;11.10;49.30;;;;;;4976945;28;20037;-68
2022/01/12 10:04:17;;;;;;;5.63;2.28;;;11.20;49.30;;;;;;4977304;28;20019;-68
2022/01/12 10:06:45;;;;;;;6.10;2.05;;;11.20;49.10;;;;;;4976965;28;20396;-67
2022/01/12 10:09:13;;;;;;;6.20;1.98;;;11.20;49.00;;;;;;4977163;28;20094;-70
2022/01/12 10:11:48;;;;;;;4.97;2.10;;;11.20;48.60;;;;;;4975699;28;20528;-68
2022/01/12 10:14:14;;;;;;;4.43;2.25;;;11.30;48.50;;;;;;4976863;28;20018;-66
2022/01/12 10:16:56;;;;;;;5.50;2.38;;;11.30;48.70;;;;;;4977169;28;20102;-67
2022/01/12 10:19:30;;;;;;;5.85;2.28;;;11.30;48.50;;;;;;4976437;28;20472;-68
2022/01/12 10:21:58;;;;;;;6.47;2.60;;;11.40;48.20;;;;;;4976656;28;20023;-69
2022/01/12 10:24:25;;;;;;;6.38;2.20;;;11.40;47.90;;;;;;4977052;28;20038;-68
2022/01/12 10:26:51;;;;;;;4.32;2.33;;;11.40;47.10;;;;;;4976692;28;20026;-69
2022/01/12 10:29:18;;;;;;;6.60;2.40;;;11.40;47.60;;;;;;4975421;28;20035;-68
2022/01/12 10:32:08;;;;;;;4.28;2.08;;;11.50;47.10;;;;;;4975076;28;20034;-70
2022/01/12 10:34:40;;;;;;;5.70;2.22;;;11.50;47.90;;;;;;4976501;28;20039;-71
2022/01/12 10:37:11;;;;;;;5.78;2.30;;;11.60;47.10;;;;;;4976899;28;20019;-68
2022/01/12 10:39:42;;;;;;;4.30;2.20;;;11.70;46.70;;;;;;4991325;28;20035;-66
2022/01/12 10:42:12;;;;;;;6.00;2.20;;;11.80;47.00;;;;;;4975178;28;20042;-69
2022/01/12 10:44:52;;;;;;;5.10;2.13;;;11.90;46.60;;;;;;4976308;28;20031;-67
2022/01/12 10:47:20;;;;;;;5.20;2.30;;;11.90;45.90;;;;;;4974967;28;20033;-68
2022/01/12 10:49:55;;;;;;;5.95;2.30;;;12.00;45.70;;;;;;4975965;28;20515;-66
2022/01/12 10:52:23;;;;;;;4.18;2.30;;;12.00;45.30;;;;;;4974758;28;20027;-67
2022/01/12 10:54:58;;;;;;;4.18;2.15;;;12.10;44.90;;;;;;4975358;28;20413;-68
2022/01/12 10:57:30;;;;;;;7.68;2.42;;;12.20;46.90;;;;;;4976155;28;20113;-67
2022/01/12 11:00:20;;;;;;;5.45;2.67;;;12.30;45.00;;;;;;4976219;28;20054;-71
2022/01/12 11:02:51;;;;;;;5.60;2.50;;;12.30;44.40;;;;;;4975769;28;20015;-68
2022/01/12 11:05:19;;;;;;;7.32;2.50;;;12.40;44.80;;;;;;4975848;28;20465;-68
2022/01/12 11:07:45;;;;;;;4.63;2.40;;;12.50;44.20;;;;;;4975716;28;20105;-69
2022/01/12 11:10:11;;;;;;;5.82;2.53;;;12.50;44.30;;;;;;4975849;28;20480;-70
2022/01/12 11:12:39;;;;;;;5.30;2.45;;;12.60;43.70;;;;;;4976047;28;20386;-69
2022/01/12 11:15:09;;;;;;;4.68;2.20;;;12.60;44.00;;;;;;4975780;28;20027;-68
2022/01/12 11:17:38;;;;;;;6.75;2.55;;;12.60;43.70;;;;;;4975745;28;20027;-67
2022/01/12 11:20:07;;;;;;;4.70;2.20;;;12.70;43.70;;;;;;4974450;28;20067;-68
2022/01/12 11:22:47;;;;;;;6.32;2.38;;;12.70;43.30;;;;;;4975573;28;20027;-68
2022/01/12 11:25:29;;;;;;;5.47;2.67;;;12.70;44.40;;;;;;4975666;28;20026;-69
2022/01/12 11:28:24;;;;;;;5.05;2.53;;;12.80;43.90;;;;;;4975584;28;20149;-71
2022/01/12 11:30:50;;;;;;;6.13;2.45;;;12.80;44.30;;;;;;4975556;28;20511;-69
2022/01/12 11:33:18;;;;;;;5.07;2.30;;;12.90;43.40;;;;;;4975258;28;20030;-68
2022/01/12 11:35:49;;;;;;;5.90;2.60;;;12.90;43.30;;;;;;4975150;28;20027;-72
2022/01/12 11:38:34;;;;;;;6.00;2.75;;;12.90;43.20;;;;;;4975261;28;20031;-69
2022/01/12 11:41:22;;;;;;;8.80;2.63;;;13.00;44.20;;;;;;4975338;28;20469;-69
2022/01/12 11:43:52;;;;;;;6.70;2.60;;;13.10;44.20;;;;;;4989968;28;20488;-68
2022/01/12 11:46:24;;;;;;;5.22;2.47;;;13.10;44.20;;;;;;4974955;28;20165;-67
2022/01/12 11:48:56;;;;;;;5.80;2.67;;;13.20;43.80;;;;;;4974980;28;20042;-71
2022/01/12 11:51:38;;;;;;;5.85;2.53;;;13.20;43.30;;;;;;4974900;28;20113;-69
2022/01/12 11:54:10;;;;;;;9.93;2.88;;;13.20;43.10;;;;;;4975058;28;20046;-69
2022/01/12 11:56:37;;;;;;;5.88;2.80;;;13.30;43.50;;;;;;4973605;28;20031;-69
2022/01/12 11:59:10;;;;;;;5.63;2.30;;;13.30;43.00;;;;;;4974927;28;20380;-67
2022/01/12 12:01:41;;;;;;;5.97;3.00;;;13.40;43.70;;;;;;4973593;28;20460;-69
2022/01/12 12:04:08;;;;;;;8.23;2.60;;;13.40;43.40;;;;;;4974817;28;20140;-71
2022/01/12 12:06:35;;;;;;;5.65;2.50;;;13.40;43.30;;;;;;4974768;28;20380;-67
2022/01/12 12:09:05;;;;;;;4.72;2.50;;;13.50;43.10;;;;;;4974580;28;20027;-70
2022/01/12 12:11:32;;;;;;;5.45;2.70;;;13.50;43.20;;;;;;4974491;28;20070;-68
2022/01/12 12:14:03;;;;;;;8.48;2.92;;;13.50;43.00;;;;;;4974619;28;20094;-69
2022/01/12 12:16:32;;;;;;;5.70;2.70;;;13.50;43.00;;;;;;4974315;28;20163;-70
2022/01/12 12:19:00;;;;;;;4.72;2.65;;;13.60;42.50;;;;;;4974296;28;20117;-69
2022/01/12 12:21:25;;;;;;;9.40;2.60;;;13.50;42.60;;;;;;4974568;28;20030;-68
2022/01/12 12:23:52;;;;;;;5.63;2.80;;;13.60;42.90;;;;;;4974282;28;20373;-71
2022/01/12 12:26:19;;;;;;;4.82;2.80;;;13.70;43.00;;;;;;4974348;28;20031;-71
2022/01/12 12:28:57;;;;;;;5.68;2.60;;;13.80;43.20;;;;;;4974270;28;20097;-69
2022/01/12 12:31:26;;;;;;;7.35;2.92;;;13.90;42.60;;;;;;4974586;28;20118;-69
2022/01/12 12:34:05;;;;;;;6.53;2.70;;;13.90;42.70;;;;;;4974102;28;20113;-68
2022/01/12 12:36:32;;;;;;;5.88;2.90;;;13.90;42.60;;;;;;4972568;28;20037;-69
2022/01/12 12:39:12;;;;;;;5.68;2.60;;;13.90;42.70;;;;;;4974192;28;20065;-70
2022/01/12 12:41:43;;;;;;;4.05;2.38;;;13.70;42.20;;;;;;4973913;28;20031;-67
2022/01/12 12:44:29;;;;;;;4.88;2.47;;;13.50;42.10;;;;;;4974096;28;20059;-70
2022/01/12 12:47:08;;;;;;;5.35;2.55;;;13.40;41.90;;;;;;4974032;28;20034;-69
2022/01/12 12:49:57;;;;;;;6.85;3.20;;;13.40;41.70;;;;;;4973801;28;20411;-68
2022/01/12 12:52:29;;;;;;;5.28;2.70;;;13.50;41.40;;;;;;4974373;28;20038;-68
2022/01/12 12:54:56;;;;;;;4.85;2.42;;;13.60;41.50;;;;;;4974206;28;20046;-68
2022/01/12 12:57:23;;;;;;;6.13;3.00;;;13.70;41.90;;;;;;4988615;28;20058;-69
2022/01/12 12:59:51;;;;;;;4.82;2.67;;;13.70;41.90;;;;;;4973936;28;20479;-69
2022/01/12 13:02:18;;;;;;;6.32;3.20;;;13.80;41.90;;;;;;4973731;28;20023;-68
2022/01/12 13:04:44;;;;;;;6.75;3.90;;;13.90;42.20;;;;;;4974266;28;20038;-68
2022/01/12 13:07:19;;;;;;;6.22;2.88;;;13.90;41.80;;;;;;4974289;28;20077;-69
2022/01/12 13:09:46;;;;;;;4.68;2.60;;;13.90;41.20;;;;;;4973745;28;20038;-67
2022/01/12 13:12:12;;;;;;;5.90;2.90;;;13.90;41.60;;;;;;4988832;28;20035;-67
2022/01/12 13:14:48;;;;;;;5.97;2.95;;;14.00;41.70;;;;;;4973850;28;20027;-68
2022/01/12 13:17:39;;;;;;;;;;;;;;;;;;;;;
2022/01/12 13:22:44;;;;;;;4.38;2.50;;;14.10;41.20;;;;;;4973802;28;20038;-68
2022/01/12 13:25:12;;;;;;;5.72;2.80;;;14.10;41.10;;;;;;4973873;28;20357;-70
2022/01/12 13:27:39;;;;;;;5.95;2.83;;;14.10;41.60;;;;;;4973716;28;20046;-67
2022/01/12 13:30:08;;;;;;;8.40;3.20;;;14.20;41.50;;;;;;4973713;28;20041;-68
2022/01/12 13:32:35;;;;;;;5.88;2.90;;;14.20;41.40;;;;;;4973725;28;20077;-68
2022/01/12 13:35:06;;;;;;;8.18;3.00;;;14.20;41.60;;;;;;4973707;28;20480;-68
2022/01/12 13:37:31;;;;;;;5.82;2.92;;;14.30;41.60;;;;;;4973498;28;20046;-68
2022/01/12 13:40:07;;;;;;;6.53;2.95;;;14.30;41.70;;;;;;4973624;28;20030;-69
2022/01/12 13:42:44;;;;;;;6.00;3.10;;;14.40;40.90;;;;;;4973686;28;20027;-68
2022/01/12 13:45:16;;;;;;;4.97;2.33;;;14.30;40.70;;;;;;4973392;28;20027;-68
2022/01/12 13:47:48;;;;;;;6.32;2.88;;;14.30;40.00;;;;;;4972995;28;20540;-67
2022/01/12 13:50:15;;;;;;;4.68;2.60;;;14.30;40.30;;;;;;4973087;28;20469;-69
2022/01/12 13:52:52;;;;;;;5.57;2.53;;;14.30;40.40;;;;;;4973619;28;20023;-69
2022/01/12 13:55:18;;;;;;;5.25;3.03;;;14.30;40.80;;;;;;4973545;28;20564;-69
2022/01/12 13:57:44;;;;;;;7.60;2.78;;;14.20;40.40;;;;;;4973248;28;20027;-71
2022/01/12 14:00:21;;;;;;;7.60;2.95;;;14.20;41.00;;;;;;4988421;28;20113;-72
2022/01/12 14:02:47;;;;;;;5.00;2.60;;;14.20;41.10;;;;;;4973816;28;20035;-68
2022/01/12 14:05:18;;;;;;;7.43;3.00;;;14.20;40.90;;;;;;4973569;28;20026;-70
2022/01/12 14:07:59;;;;;;;8.43;2.70;;;14.50;40.90;;;;;;4972125;28;20511;-70
2022/01/12 14:10:27;;;;;;;17.23;10.50;;;14.70;40.80;;;;;;4973485;28;20401;-69